createdAt,value
2019-03-25T00:02:27.527Z,9.97
2019-03-25T00:04:58.466Z,8.80
2019-03-25T00:07:28.805Z,9.30
2019-03-25T00:09:59.735Z,10.10
2019-03-25T00:12:30.461Z,9.37
2019-03-25T00:15:00.807Z,9.97
2019-03-25T00:17:31.619Z,9.27
2019-03-25T00:20:02.354Z,9.03
2019-03-25T00:22:33.546Z,9.80
2019-03-25T00:25:03.919Z,9.63
2019-03-25T00:27:35.837Z,9.57
2019-03-25T00:30:06.257Z,9.53
2019-03-25T00:32:37.362Z,9.13
2019-03-25T00:35:07.743Z,9.03
2019-03-25T00:37:39.004Z,8.67
2019-03-25T00:40:09.876Z,8.97
2019-03-25T00:42:40.189Z,8.93
2019-03-25T00:45:11.338Z,9.47
2019-03-25T00:47:42.134Z,8.97
2019-03-25T00:50:12.458Z,8.47
2019-03-25T00:52:43.186Z,8.83
2019-03-25T00:55:13.539Z,9.77
2019-03-25T00:57:44.471Z,9.60
2019-03-25T01:00:15.364Z,9.30
2019-03-25T01:02:45.675Z,9.53
2019-03-25T01:05:16.390Z,9.40
2019-03-25T01:07:46.805Z,10.10
2019-03-25T01:10:17.161Z,10.17
2019-03-25T01:12:48.634Z,9.63
2019-03-25T01:15:19.026Z,10.00
2019-03-25T01:17:49.339Z,10.20
2019-03-25T01:20:19.746Z,9.53
2019-03-25T01:22:50.126Z,8.93
2019-03-25T01:25:21.413Z,9.93
2019-03-25T01:27:51.738Z,9.60
2019-03-25T01:30:22.674Z,9.73
2019-03-25T01:32:53.095Z,10.13
2019-03-25T01:35:23.986Z,9.97
2019-03-25T01:37:54.293Z,9.23
2019-03-25T01:40:24.668Z,10.20
2019-03-25T01:42:55.448Z,10.00
2019-03-25T01:45:25.827Z,10.53
2019-03-25T01:47:56.132Z,11.07
2019-03-25T01:50:26.901Z,10.37
2019-03-25T01:52:57.570Z,10.03
2019-03-25T01:55:27.922Z,10.07
2019-03-25T01:57:58.231Z,10.20
2019-03-25T02:00:28.769Z,9.20
2019-03-25T02:02:59.482Z,9.70
2019-03-25T02:05:29.913Z,11.03
2019-03-25T02:08:00.250Z,9.83
2019-03-25T02:10:30.607Z,9.60
2019-03-25T02:13:01.502Z,9.40
2019-03-25T02:15:31.901Z,9.03
2019-03-25T02:18:02.209Z,9.37
2019-03-25T02:20:33.020Z,9.87
2019-03-25T02:23:03.522Z,9.67
2019-03-25T02:25:35.278Z,9.20
2019-03-25T02:28:06.233Z,9.53
2019-03-25T02:30:36.579Z,8.83
2019-03-25T02:33:07.559Z,8.47
2019-03-25T02:35:37.899Z,9.00
2019-03-25T02:38:08.226Z,8.60
2019-03-25T02:40:39.082Z,9.23
2019-03-25T02:43:09.456Z,8.20
2019-03-25T02:45:40.332Z,7.93
2019-03-25T02:48:11.588Z,7.63
2019-03-25T02:50:41.944Z,8.83
2019-03-25T02:53:12.631Z,7.33
2019-03-25T02:55:43.064Z,8.90
2019-03-25T02:58:13.741Z,7.33
2019-03-25T03:00:44.428Z,8.27
2019-03-25T03:03:14.736Z,8.10
2019-03-25T03:05:45.657Z,7.40
2019-03-25T03:08:15.966Z,7.53
2019-03-25T03:10:46.922Z,7.30
2019-03-25T03:13:17.227Z,7.57
2019-03-25T03:15:47.562Z,7.00
2019-03-25T03:18:18.306Z,7.20
2019-03-25T03:20:49.172Z,6.83
2019-03-25T03:23:19.518Z,6.97
2019-03-25T03:25:56.949Z,7.00
2019-03-25T03:28:22.308Z,7.20
2019-03-25T03:30:53.014Z,6.63
2019-03-25T03:33:23.314Z,5.83
2019-03-25T03:35:54.197Z,6.27
2019-03-25T03:38:24.518Z,6.60
2019-03-25T03:40:55.264Z,6.00
2019-03-25T03:43:25.585Z,5.67
2019-03-25T03:45:56.284Z,5.60
2019-03-25T03:48:27.195Z,5.47
2019-03-25T03:50:58.129Z,5.50
2019-03-25T03:53:28.449Z,5.17
2019-03-25T03:56:11.974Z,5.30
2019-03-25T03:58:31.334Z,4.63
2019-03-25T04:01:01.702Z,4.27
2019-03-25T04:03:32.012Z,4.83
2019-03-25T04:06:02.885Z,4.70
2019-03-25T04:08:33.181Z,4.33
2019-03-25T04:11:04.107Z,4.30
2019-03-25T04:13:34.397Z,4.73
2019-03-25T04:16:04.762Z,4.50
2019-03-25T04:18:35.380Z,4.10
2019-03-25T04:21:05.735Z,3.80
2019-03-25T04:23:36.620Z,3.97
2019-03-25T04:26:07.331Z,3.90
2019-03-25T04:28:37.659Z,4.07
2019-03-25T04:31:08.704Z,4.00
2019-03-25T04:33:39.394Z,3.73
2019-03-25T04:36:10.119Z,3.57
2019-03-25T04:38:40.854Z,3.83
2019-03-25T04:41:11.191Z,4.13
2019-03-25T04:43:41.668Z,4.20
2019-03-25T04:46:12.392Z,3.57
2019-03-25T04:48:42.709Z,3.93
2019-03-25T04:51:13.061Z,4.00
2019-03-25T04:53:44.046Z,3.70
2019-03-25T04:56:14.758Z,3.37
2019-03-25T04:58:45.415Z,4.13
2019-03-25T05:01:16.601Z,3.50
2019-03-25T05:03:47.493Z,4.00
2019-03-25T05:06:17.851Z,3.70
2019-03-25T05:08:48.787Z,3.77
2019-03-25T05:11:30.107Z,3.53
2019-03-25T05:13:52.472Z,3.70
2019-03-25T05:16:22.789Z,3.30
2019-03-25T05:18:53.118Z,3.30
2019-03-25T05:21:23.799Z,3.70
2019-03-25T05:23:54.159Z,3.50
2019-03-25T05:26:24.486Z,2.83
2019-03-25T05:28:55.713Z,3.10
2019-03-25T05:31:26.009Z,3.53
2019-03-25T05:33:56.763Z,3.10
2019-03-25T05:36:27.059Z,3.53
2019-03-25T05:38:57.787Z,3.30
2019-03-25T05:41:29.085Z,2.80
2019-03-25T05:43:59.430Z,3.60
2019-03-25T05:46:29.735Z,3.50
2019-03-25T05:49:01.180Z,3.63
2019-03-25T05:51:31.487Z,3.53
2019-03-25T05:54:02.666Z,3.07
2019-03-25T05:56:32.967Z,3.37
2019-03-25T05:59:04.325Z,3.10
2019-03-25T06:01:35.130Z,3.07
2019-03-25T06:04:05.512Z,2.93
2019-03-25T06:06:36.372Z,2.87
2019-03-25T06:09:07.362Z,3.33
2019-03-25T06:11:37.772Z,3.00
2019-03-25T06:14:08.534Z,3.43
2019-03-25T06:16:38.832Z,3.47
2019-03-25T06:19:09.195Z,2.70
2019-03-25T06:21:40.209Z,3.43
2019-03-25T06:24:10.903Z,2.93
2019-03-25T06:26:41.617Z,2.97
2019-03-25T06:29:11.984Z,2.83
2019-03-25T06:31:42.763Z,2.77
2019-03-25T06:34:13.713Z,2.90
2019-03-25T06:36:44.438Z,3.00
2019-03-25T06:39:14.786Z,2.90
2019-03-25T06:41:45.667Z,3.47
2019-03-25T06:44:16.392Z,3.60
2019-03-25T06:46:47.279Z,3.07
2019-03-25T06:49:18.221Z,3.47
2019-03-25T06:51:49.115Z,3.33
2019-03-25T06:54:19.847Z,3.07
2019-03-25T06:56:50.731Z,3.37
2019-03-25T06:59:22.108Z,3.50
2019-03-25T07:01:52.484Z,2.87
2019-03-25T07:04:22.785Z,3.30
2019-03-25T07:06:53.108Z,3.13
2019-03-25T07:09:23.403Z,2.90
2019-03-25T07:11:54.318Z,3.70
2019-03-25T07:14:24.612Z,3.27
2019-03-25T07:16:54.989Z,3.53
2019-03-25T07:19:25.324Z,3.67
2019-03-25T07:21:56.303Z,3.27
2019-03-25T07:24:27.765Z,3.77
2019-03-25T07:26:58.137Z,3.67
2019-03-25T07:29:28.888Z,3.37
2019-03-25T07:31:59.282Z,3.40
2019-03-25T07:34:29.990Z,3.50
2019-03-25T07:37:00.380Z,4.17
2019-03-25T07:39:31.253Z,4.40
2019-03-25T07:42:02.177Z,4.03
2019-03-25T07:44:32.958Z,3.87
2019-03-25T07:47:03.206Z,4.57
2019-03-25T07:49:33.526Z,4.60
2019-03-25T07:52:04.289Z,4.77
2019-03-25T07:54:34.617Z,3.50
2019-03-25T07:57:05.401Z,4.33
2019-03-25T07:59:36.339Z,4.53
2019-03-25T08:02:07.719Z,3.97
2019-03-25T08:04:38.798Z,4.30
2019-03-25T08:07:09.255Z,4.23
2019-03-25T08:09:40.193Z,4.70
2019-03-25T08:12:10.938Z,5.07
2019-03-25T08:14:42.264Z,3.80
2019-03-25T08:17:13.166Z,4.60
2019-03-25T08:19:43.473Z,4.23
2019-03-25T08:22:15.357Z,4.43
2019-03-25T08:24:46.214Z,4.27
2019-03-25T08:27:16.971Z,4.73
2019-03-25T08:29:47.631Z,4.53
2019-03-25T08:32:18.505Z,4.77
2019-03-25T08:34:49.473Z,4.03
2019-03-25T08:37:21.162Z,4.20
2019-03-25T08:39:51.836Z,4.63
2019-03-25T08:42:23.904Z,5.20
2019-03-25T08:44:54.701Z,5.17
2019-03-25T08:47:25.547Z,6.70
2019-03-25T08:49:56.703Z,5.43
2019-03-25T08:52:27.075Z,6.63
2019-03-25T08:54:58.116Z,6.97
2019-03-25T08:57:29.011Z,5.23
2019-03-25T08:59:59.641Z,4.80
2019-03-25T09:02:30.527Z,4.30
2019-03-25T09:05:00.835Z,3.97
2019-03-25T09:07:31.250Z,3.97
2019-03-25T09:10:01.574Z,4.47
2019-03-25T09:12:32.578Z,4.43
2019-03-25T09:15:03.522Z,3.97
2019-03-25T09:17:33.915Z,4.87
2019-03-25T09:20:05.450Z,4.10
2019-03-25T09:22:35.818Z,3.87
2019-03-25T09:25:06.579Z,3.70
2019-03-25T09:27:38.015Z,4.00
2019-03-25T09:30:09.035Z,3.47
2019-03-25T09:32:39.443Z,4.00
2019-03-25T09:35:10.288Z,4.33
2019-03-25T09:37:41.634Z,3.70
2019-03-25T09:40:12.312Z,5.00
2019-03-25T09:42:42.731Z,3.47
2019-03-25T09:45:13.189Z,4.10
2019-03-25T09:47:44.522Z,4.30
2019-03-25T09:50:16.734Z,4.30
2019-03-25T09:52:47.544Z,4.30
2019-03-25T09:55:17.887Z,4.37
2019-03-25T09:57:49.209Z,4.00
2019-03-25T10:00:23.067Z,4.03
2019-03-25T10:02:53.425Z,4.10
2019-03-25T10:05:23.789Z,4.00
2019-03-25T10:07:54.093Z,4.13
2019-03-25T10:10:24.405Z,3.47
2019-03-25T10:12:56.839Z,3.27
2019-03-25T10:15:27.587Z,3.23
2019-03-25T10:17:58.522Z,3.57
2019-03-25T10:20:29.379Z,3.73
2019-03-25T10:22:59.877Z,4.37
2019-03-25T10:25:31.341Z,4.10
2019-03-25T10:28:02.330Z,3.50
2019-03-25T10:30:33.921Z,3.73
2019-03-25T10:33:06.490Z,4.03
2019-03-25T10:35:36.816Z,3.87
2019-03-25T10:38:19.169Z,3.67
2019-03-25T10:40:41.398Z,4.23
2019-03-25T10:43:12.143Z,4.20
2019-03-25T10:45:43.000Z,3.33
2019-03-25T10:48:14.568Z,4.00
2019-03-25T10:50:45.410Z,4.00
2019-03-25T10:53:16.111Z,5.70
2019-03-25T10:55:47.975Z,10.13
2019-03-25T10:58:18.943Z,5.40
2019-03-25T11:00:50.286Z,4.27
2019-03-25T11:03:20.663Z,3.93
2019-03-25T11:05:51.549Z,3.47
2019-03-25T11:08:22.423Z,3.63
2019-03-25T11:10:52.803Z,3.30
2019-03-25T11:13:23.572Z,3.57
2019-03-25T11:15:53.894Z,3.40
2019-03-25T11:18:24.250Z,3.27
2019-03-25T11:20:55.655Z,3.73
2019-03-25T11:23:25.947Z,3.47
2019-03-25T11:25:56.725Z,3.67
2019-03-25T11:28:27.619Z,3.53
2019-03-25T11:31:01.558Z,3.20
2019-03-25T11:33:31.931Z,3.57
2019-03-25T11:36:02.921Z,3.83
2019-03-25T11:38:34.183Z,3.47
2019-03-25T11:41:04.962Z,3.90
2019-03-25T11:43:35.757Z,4.20
2019-03-25T11:46:16.431Z,3.13
2019-03-25T11:48:47.328Z,3.00
2019-03-25T11:51:18.240Z,4.23
2019-03-25T11:53:52.105Z,4.10
2019-03-25T11:56:22.779Z,3.10
2019-03-25T11:58:53.188Z,3.40
2019-03-25T12:01:23.579Z,2.70
2019-03-25T12:03:54.710Z,2.57
2019-03-25T12:06:25.037Z,1.40
2019-03-25T12:08:55.928Z,1.20
2019-03-25T12:11:28.334Z,0.67
2019-03-25T12:13:59.852Z,0.57
2019-03-25T12:16:31.494Z,0.80
2019-03-25T12:19:02.817Z,0.70
2019-03-25T12:21:33.782Z,0.47
2019-03-25T12:24:04.270Z,0.50
2019-03-25T12:26:34.606Z,0.40
2019-03-25T12:29:05.997Z,0.50
2019-03-25T12:31:37.368Z,0.57
2019-03-25T12:34:07.744Z,0.47
2019-03-25T12:36:38.704Z,0.50
2019-03-25T12:39:09.231Z,0.80
2019-03-25T12:41:40.316Z,0.70
2019-03-25T12:44:10.754Z,0.73
2019-03-25T12:46:41.465Z,0.70
2019-03-25T12:49:12.775Z,0.90
2019-03-25T12:51:44.152Z,0.90
2019-03-25T12:54:15.056Z,0.80
2019-03-25T12:56:45.729Z,1.40
2019-03-25T12:59:16.666Z,1.20
2019-03-25T13:01:52.768Z,1.53
2019-03-25T13:04:19.513Z,1.10
2019-03-25T13:06:52.318Z,1.20
2019-03-25T13:09:23.104Z,1.50
2019-03-25T13:11:53.395Z,1.40
2019-03-25T13:14:24.267Z,1.37
2019-03-25T13:16:55.784Z,1.33
2019-03-25T13:19:26.495Z,1.20
2019-03-25T13:21:59.988Z,1.20
2019-03-25T13:24:31.451Z,1.10
2019-03-25T13:27:02.771Z,1.00
2019-03-25T13:29:33.524Z,1.10
2019-03-25T13:32:04.744Z,1.47
2019-03-25T13:34:35.526Z,1.20
2019-03-25T13:37:06.270Z,1.50
2019-03-25T13:39:37.938Z,1.37
2019-03-25T13:42:08.962Z,1.20
2019-03-25T13:44:39.341Z,1.30
2019-03-25T13:47:10.196Z,1.50
2019-03-25T13:49:40.909Z,1.57
2019-03-25T13:52:11.807Z,1.27
2019-03-25T13:54:42.854Z,1.50
2019-03-25T13:57:14.149Z,1.53
2019-03-25T13:59:45.540Z,1.50
2019-03-25T14:02:16.279Z,1.40
2019-03-25T14:04:46.647Z,1.80
2019-03-25T14:07:17.003Z,1.53
2019-03-25T14:09:47.377Z,1.13
2019-03-25T14:12:18.443Z,1.30
2019-03-25T14:14:49.387Z,1.00
2019-03-25T14:17:20.775Z,0.30
2019-03-25T14:19:51.626Z,0.90
2019-03-25T14:22:22.415Z,0.50
2019-03-25T14:24:52.770Z,0.50
2019-03-25T14:27:24.435Z,0.67
2019-03-25T14:29:55.196Z,0.60
2019-03-25T14:32:25.535Z,0.70
2019-03-25T14:34:56.952Z,0.50
2019-03-25T14:37:27.687Z,0.40
2019-03-25T14:39:58.676Z,0.70
2019-03-25T14:42:28.997Z,0.33
2019-03-25T14:44:59.322Z,0.70
2019-03-25T14:47:29.698Z,0.53
2019-03-25T14:50:00.157Z,0.60
2019-03-25T14:52:30.836Z,0.70
2019-03-25T14:55:01.625Z,0.90
2019-03-25T14:57:33.001Z,0.83
2019-03-25T15:00:03.727Z,0.70
2019-03-25T15:02:34.443Z,0.97
2019-03-25T15:05:05.306Z,0.93
2019-03-25T15:07:36.166Z,0.80
2019-03-25T15:10:08.665Z,0.93
2019-03-25T15:12:39.430Z,0.80
2019-03-25T15:15:10.647Z,0.90
2019-03-25T15:17:41.812Z,0.97
2019-03-25T15:20:12.572Z,1.10
2019-03-25T15:22:43.229Z,1.10
2019-03-25T15:25:14.289Z,1.07
2019-03-25T15:27:44.636Z,1.40
2019-03-25T15:30:15.067Z,1.13
2019-03-25T15:32:46.311Z,0.70
2019-03-25T15:35:17.794Z,0.90
2019-03-25T15:37:48.645Z,0.80
2019-03-25T15:40:19.089Z,0.70
2019-03-25T15:42:50.058Z,0.80
2019-03-25T15:45:20.813Z,0.60
2019-03-25T15:47:51.931Z,0.50
2019-03-25T15:50:22.418Z,0.43
2019-03-25T15:52:53.808Z,0.53
2019-03-25T15:55:24.235Z,0.60
2019-03-25T15:57:55.089Z,0.57
2019-03-25T16:00:25.489Z,0.60
2019-03-25T16:02:55.812Z,0.60
2019-03-25T16:05:26.172Z,0.37
2019-03-25T16:07:56.953Z,0.47
2019-03-25T16:10:27.325Z,0.43
2019-03-25T16:12:58.592Z,0.57
2019-03-25T16:15:40.735Z,0.50
2019-03-25T16:18:12.706Z,0.40
2019-03-25T16:20:43.729Z,0.43
2019-03-25T16:23:15.026Z,0.53
2019-03-25T16:25:45.734Z,0.40
2019-03-25T16:28:16.051Z,0.90
2019-03-25T16:30:57.832Z,0.73
2019-03-25T16:33:18.758Z,0.50
2019-03-25T16:35:49.571Z,0.87
2019-03-25T16:38:20.403Z,0.80
2019-03-25T16:40:51.848Z,0.73
2019-03-25T16:43:22.494Z,0.70
2019-03-25T16:45:52.945Z,0.53
2019-03-25T16:48:23.265Z,0.60
2019-03-25T16:50:53.639Z,0.67
2019-03-25T16:53:24.521Z,0.67
2019-03-25T16:55:56.160Z,0.53
2019-03-25T16:58:26.499Z,0.80
2019-03-25T17:00:57.424Z,0.80
2019-03-25T17:03:28.043Z,0.63
2019-03-25T17:05:58.907Z,0.70
2019-03-25T17:08:29.378Z,0.90
2019-03-25T17:11:00.165Z,0.70
2019-03-25T17:13:30.914Z,0.93
2019-03-25T17:16:01.928Z,0.70
2019-03-25T17:18:33.151Z,1.00
2019-03-25T17:21:03.908Z,1.30
2019-03-25T17:23:35.088Z,1.07
2019-03-25T17:26:05.535Z,0.90
2019-03-25T17:28:35.854Z,1.10
2019-03-25T17:31:07.420Z,0.90
2019-03-25T17:33:37.792Z,1.13
2019-03-25T17:36:08.734Z,0.73
2019-03-25T17:38:39.845Z,0.97
2019-03-25T17:41:11.399Z,1.00
2019-03-25T17:43:42.242Z,1.10
2019-03-25T17:46:13.743Z,0.80
2019-03-25T17:48:44.416Z,2.17
2019-03-25T17:51:14.756Z,1.57
2019-03-25T17:53:45.470Z,2.40
2019-03-25T17:56:17.750Z,1.73
2019-03-25T17:58:48.140Z,1.30
2019-03-25T18:01:32.098Z,1.30
2019-03-25T18:03:56.353Z,1.07
2019-03-25T18:06:28.193Z,1.13
2019-03-25T18:08:59.154Z,1.23
2019-03-25T18:11:30.871Z,1.33
2019-03-25T18:14:02.067Z,1.13
2019-03-25T18:16:33.579Z,1.20
2019-03-25T18:19:03.971Z,1.03
2019-03-25T18:21:34.359Z,1.00
2019-03-25T18:24:06.150Z,1.30
2019-03-25T18:26:36.476Z,1.10
2019-03-25T18:29:07.302Z,1.20
2019-03-25T18:31:43.166Z,1.80
2019-03-25T18:34:11.170Z,1.50
2019-03-25T18:36:42.117Z,1.60
2019-03-25T18:39:15.019Z,1.37
2019-03-25T18:41:45.362Z,1.20
2019-03-25T18:44:16.266Z,1.20
2019-03-25T18:46:46.971Z,1.03
2019-03-25T18:49:17.899Z,1.30
2019-03-25T18:51:48.781Z,1.40
2019-03-25T18:54:20.140Z,1.67
2019-03-25T18:56:50.940Z,1.53
2019-03-25T18:59:21.320Z,1.70
2019-03-25T19:01:54.747Z,2.00
2019-03-25T19:04:27.145Z,1.57
2019-03-25T19:06:57.606Z,1.17
2019-03-25T19:09:28.651Z,1.50
2019-03-25T19:11:59.046Z,1.60
2019-03-25T19:14:30.913Z,1.57
2019-03-25T19:17:02.131Z,1.63
2019-03-25T19:19:33.470Z,1.80
2019-03-25T19:22:05.498Z,1.40
2019-03-25T19:24:36.589Z,2.00
2019-03-25T19:27:07.347Z,1.50
2019-03-25T19:29:37.838Z,1.70
2019-03-25T19:32:08.795Z,1.37
2019-03-25T19:34:39.626Z,1.43
2019-03-25T19:37:09.995Z,1.40
2019-03-25T19:39:40.417Z,1.60
2019-03-25T19:42:11.917Z,1.60
2019-03-25T19:44:43.195Z,1.23
2019-03-25T19:47:13.588Z,1.60
2019-03-25T19:49:44.707Z,1.23
2019-03-25T19:52:15.505Z,1.20
2019-03-25T19:54:45.951Z,1.17
2019-03-25T19:57:16.851Z,1.00
2019-03-25T19:59:48.326Z,1.10
2019-03-25T20:02:19.572Z,1.27
2019-03-25T20:04:50.905Z,1.30
2019-03-25T20:07:22.228Z,1.20
2019-03-25T20:09:53.497Z,1.20
2019-03-25T20:12:24.363Z,1.30
2019-03-25T20:14:54.752Z,1.20
2019-03-25T20:17:26.233Z,1.13
2019-03-25T20:19:57.062Z,1.23
2019-03-25T20:22:28.492Z,1.40
2019-03-25T20:24:59.316Z,1.13
2019-03-25T20:27:30.647Z,1.17
2019-03-25T20:30:02.642Z,1.20
2019-03-25T20:32:33.675Z,1.27
2019-03-25T20:35:06.086Z,1.17
2019-03-25T20:37:37.774Z,1.37
2019-03-25T20:40:08.571Z,1.33
2019-03-25T20:42:38.921Z,1.40
2019-03-25T20:45:10.208Z,1.17
2019-03-25T20:47:40.567Z,1.20
2019-03-25T20:50:11.437Z,1.90
2019-03-25T20:52:42.655Z,2.67
2019-03-25T20:55:13.605Z,4.73
2019-03-25T20:57:44.465Z,2.67
2019-03-25T21:00:15.411Z,2.23
2019-03-25T21:02:46.296Z,1.67
2019-03-25T21:05:16.712Z,1.50
2019-03-25T21:07:47.894Z,1.17
2019-03-25T21:10:23.137Z,1.20
2019-03-25T21:12:54.718Z,1.30
2019-03-25T21:15:25.632Z,1.10
2019-03-25T21:17:56.132Z,0.87
2019-03-25T21:20:27.110Z,0.70
2019-03-25T21:22:57.993Z,0.67
2019-03-25T21:25:29.549Z,0.50
2019-03-25T21:27:59.994Z,0.60
2019-03-25T21:30:31.388Z,0.60
2019-03-25T21:33:02.552Z,0.43
2019-03-25T21:35:32.984Z,1.00
2019-03-25T21:38:03.953Z,0.70
2019-03-25T21:40:34.419Z,0.60
2019-03-25T21:43:05.997Z,0.63
2019-03-25T21:45:36.795Z,1.00
2019-03-25T21:48:08.090Z,0.53
2019-03-25T21:50:39.305Z,0.50
2019-03-25T21:53:10.184Z,0.67
2019-03-25T21:55:40.565Z,0.60
2019-03-25T21:58:11.087Z,0.60
2019-03-25T22:00:41.539Z,0.60
2019-03-25T22:03:12.761Z,0.53
2019-03-25T22:05:43.191Z,0.63
2019-03-25T22:08:14.072Z,0.63
2019-03-25T22:10:44.430Z,0.73
2019-03-25T22:13:16.549Z,0.40
2019-03-25T22:15:47.445Z,0.70
2019-03-25T22:18:18.182Z,0.50
2019-03-25T22:20:48.639Z,0.50
2019-03-25T22:23:18.975Z,0.60
2019-03-25T22:25:50.360Z,0.70
2019-03-25T22:28:23.159Z,0.57
2019-03-25T22:30:54.420Z,0.50
2019-03-25T22:33:25.985Z,0.70
2019-03-25T22:35:57.190Z,0.77
2019-03-25T22:38:27.554Z,0.67
2019-03-25T22:40:58.986Z,0.60
2019-03-25T22:43:30.525Z,0.67
2019-03-25T22:46:01.773Z,0.70
2019-03-25T22:48:32.708Z,0.80
2019-03-25T22:51:03.106Z,0.30
2019-03-25T22:53:33.435Z,0.77
2019-03-25T22:56:03.799Z,0.60
2019-03-25T22:58:34.717Z,0.70
2019-03-25T23:01:19.969Z,0.80
2019-03-25T23:03:50.471Z,0.70
2019-03-25T23:06:20.851Z,0.73
2019-03-25T23:08:51.191Z,0.70
2019-03-25T23:11:22.860Z,0.80
2019-03-25T23:13:53.201Z,0.60
2019-03-25T23:16:24.267Z,0.60
2019-03-25T23:18:54.614Z,0.80
2019-03-25T23:21:25.367Z,0.67
2019-03-25T23:23:56.100Z,0.57
2019-03-25T23:26:26.893Z,0.90
2019-03-25T23:28:58.190Z,0.70
2019-03-25T23:31:28.566Z,0.80
2019-03-25T23:33:59.120Z,0.90
2019-03-25T23:36:30.083Z,0.83
2019-03-25T23:39:01.388Z,1.03
2019-03-25T23:41:32.282Z,1.03
2019-03-25T23:44:02.951Z,0.83
2019-03-25T23:46:33.895Z,0.90
2019-03-25T23:49:04.708Z,1.10
2019-03-25T23:51:35.454Z,1.07
2019-03-25T23:54:16.242Z,0.90
2019-03-25T23:56:47.327Z,1.20
2019-03-25T23:59:18.091Z,0.93
